Flight Track Log - Related Links

Times and Time Zones

All times are in EDT time to prevent confusion due to time zone crossing. See the N531QS flight status page for this flight to view local times or setup timezone preferences in your user account.

Time Position Orientation Groundspeed Altitude Reporting Facility
EDT Latitude Longitude Course Direction KTS MPH feet Rate Location/Type
Fri 03:31:44 PM 36.0772 -115.1731 96° East 180 207 3,700  Level Los Center
Fri 03:33:12 PM 36.0858 -115.2772 276° West 238 274 7,900 3,383 Climbing Los Center
Fri 03:33:57 PM 36.1450 -115.2972 345° North 258 297 11,200 3,566 Climbing Los Center
Fri 03:34:58 PM 36.1856 -115.2253 55° Northeast 272 313 14,200 1,967 Climbing Los Center
Fri 03:35:59 PM 36.1986 -115.1064 82° East 370 426 15,200 1,869 Climbing Los Center
Fri 03:37:00 PM 36.1881 -114.6236 96° East  Level FlightAware
Fri 03:37:00 PM 36.1983 -114.9653 90° East 403 464 18,000  Level Los Center
Fri 03:38:23 PM 36.1994 -114.7806 90° East 416 479 19,300 1,159 Climbing Los Center
Fri 03:39:25 PM 36.1983 -114.6333 90° East 425 489 20,800 1,790 Climbing Los Center
Fri 03:40:27 PM 36.1953 -114.4803 91° East 442 509 23,000 1,065 Climbing Los Center
Fri 03:41:29 PM 36.1944 -114.2936 90° East 450 518 23,000 823 Level Los Center
Fri 03:42:31 PM 36.2425 -114.1481 68° East 453 521 24,700 1,742 Climbing Los Center
Fri 03:43:33 PM 36.2908 -114.0019 68° East 457 526 26,600 1,824 Climbing Los Center
Fri 03:44:36 PM 36.3425 -113.8519 67° East 468 539 28,500 1,824 Climbing Los Center
Fri 03:45:38 PM 36.3953 -113.6983 67° East 480 552 30,400 1,935 Climbing Los Center
Fri 03:46:40 PM 36.4717 -113.5206 62° Northeast 488 562 32,500 1,984 Climbing Los Center
Fri 03:47:42 PM 36.5594 -113.4006 48° Northeast 486 559 34,500 2,029 Climbing Los Center
Fri 03:48:56 PM 36.6481 -113.2761 48° Northeast 483 556 37,100 2,365 Climbing Los Center
Fri 03:49:59 PM 36.7531 -113.1297 48° Northeast 476 548 39,900 1,872 Climbing Los Center
Fri 03:51:01 PM 36.8383 -113.0081 49° Northeast 471 542 41,000 532 Climbing Los Center
Fri 03:52:03 PM 36.9439 -112.8600 48° Northeast 475 547 41,000  Level Los Center
Fri 03:53:05 PM 37.0314 -112.7339 49° Northeast 480 552 41,000  Level Los Center
Fri 03:54:07 PM 37.1200 -112.6086 48° Northeast 482 555 41,000  Level Los Center
Fri 03:55:09 PM 37.2078 -112.4839 49° Northeast 481 554 41,000  Level Los Center
Fri 03:56:12 PM 37.3125 -112.3328 49° Northeast 482 555 41,000  Level Los Center
Fri 03:57:14 PM 37.3994 -112.2067 49° Northeast 481 554 41,000  Level Los Center
Fri 03:57:47 PM 37.4506 -112.1314 49° Northeast 481 554 41,000  Level Salt Center
Fri 03:59:30 PM 37.5914 -111.9275 49° Northeast 482 555 41,000  Level Los Center
Fri 04:00:32 PM 37.6789 -111.7994 49° Northeast 484 557 41,000  Level Los Center
Fri 04:01:34 PM 37.7667 -111.6717 49° Northeast 484 557 41,000  Level Los Center
Fri 04:02:58 PM 37.9075 -111.4644 49° Northeast 487 560 41,000  Level Salt Center
Fri 04:04:00 PM 37.9956 -111.3353 49° Northeast 486 559 41,000  Level Salt Center
Fri 04:05:02 PM 38.0833 -111.2033 50° Northeast 490 564 41,000  Level Salt Center
Fri 04:06:04 PM 38.1719 -111.0728 49° Northeast 489 563 41,000  Level Salt Center
Fri 04:07:06 PM 38.2603 -110.9400 50° Northeast 492 566 41,000  Level Salt Center
Fri 04:08:08 PM 38.3608 -110.7864 50° Northeast 492 566 41,000  Level Salt Center
Fri 04:09:10 PM 38.4367 -110.6511 54° Northeast 491 565 41,000  Level Salt Center
Fri 04:10:12 PM 38.4967 -110.4700 67° East 496 571 41,000  Level Salt Center
Fri 04:11:14 PM 38.5489 -110.3164 66° East 495 570 41,000  Level Salt Center
Fri 04:12:16 PM 38.6094 -110.1361 67° East 494 568 41,000  Level Salt Center
Fri 04:13:18 PM 38.6622 -109.9814 66° East 496 571 41,000  Level Salt Center
Fri 04:14:20 PM 38.7169 -109.8292 65° Northeast 494 568 41,000  Level Salt Center
Fri 04:15:22 PM 38.7775 -109.6489 67° East 494 568 41,000  Level Salt Center
Fri 04:16:24 PM 38.8289 -109.4944 67° East 493 567 41,000 -145 Level Salt Center
Fri 04:17:26 PM 38.8894 -109.3128 67° East 496 571 40,700 -581 Descending Salt Center
Fri 04:18:28 PM 38.9431 -109.1625 65° Northeast 490 564 39,800 -1,548 Descending Salt Center
Fri 04:19:30 PM 39.0231 -109.0019 57° Northeast 481 554 37,500 -2,274 Descending Salt Center
Fri 04:20:32 PM 39.0919 -108.8614 58° Northeast 487 560 35,100 -2,468 Descending Salt Center
Fri 04:21:34 PM 39.1717 -108.6928 59° Northeast 494 568 32,400 -2,468 Descending Salt Center
Fri 04:22:36 PM 39.2408 -108.5475 58° Northeast 499 574 30,000 -2,226 Descending Salt Center
Fri 04:23:38 PM 39.3233 -108.3778 58° Northeast 503 579 27,800 -1,452 Descending Salt Center
Fri 04:24:40 PM 39.3911 -108.2356 58° Northeast 495 570 27,000 -677 Descending Salt Center
Fri 04:25:42 PM 39.4694 -108.0703 58° Northeast 487 560 26,400 -713 Descending Salt Center
Fri 04:26:21 PM 39.4931 -107.9956 68° East 481 554 25,800 -1,118 Descending Denver Center
Fri 04:27:24 PM 39.5128 -107.8064 82° East 475 547 24,500 -1,296 Descending Denver Center
Fri 04:28:26 PM 39.5103 -107.6183 91° East 469 540 23,100 -726 Descending Denver Center
Fri 04:29:28 PM 39.5344 -107.4672 78° East 454 522 23,000 -98 Descending Denver Center
Fri 04:30:29 PM 39.6072 -107.3092 59° Northeast 456 525 22,900 -1,122 Descending Denver Center
Fri 04:31:31 PM 39.6700 -107.1739 59° Northeast 458 527 20,700 -1,887 Descending Denver Center
Fri 04:32:33 PM 39.7356 -107.0303 59° Northeast 425 489 19,000 -1,742 Descending Denver Center
Fri 04:33:35 PM 39.7889 -106.9158 59° Northeast 372 428 17,100 -1,548 Descending Denver Center
Fri 04:34:37 PM 39.8411 -106.8042 59° Northeast 362 417 15,800 -1,500 Descending Denver Center
Fri 04:35:39 PM 39.8492 -106.6889 85° East 346 398 14,000 -871 Descending Denver Center
Fri 04:36:41 PM 39.8114 -106.5889 116° Southeast 314 361 14,000 -48 Level Denver Center
Fri 04:37:43 PM 39.7539 -106.5461 150° Southeast 264 304 13,900 -726 Descending Denver Center
Fri 04:38:45 PM 39.6969 -106.5703 198° South 217 250 12,500 -1,306 Descending Denver Center
Fri 04:39:47 PM 39.6836 -106.6397 256° West 202 232 11,200 -1,306 Descending Denver Center
Fri 04:40:49 PM 39.6711 -106.7233 259° West 198 228 9,800 -1,306 Descending Denver Center
Fri 04:41:51 PM 39.6606 -106.7919 259° West 195 224 8,500 -1,113 Descending Denver Center
Fri 04:42:53 PM 39.6525 -106.8453 259° West 169 194 7,500 -823 Descending Denver Center
Fri 04:43:55 PM 39.6444 -106.8983 259° West 154 177 6,800 -677 Descending Denver Center

Login

Don't have an account? Register now (free) for customized features, flight alerts, and more!